Time;durP1;ratioP1;P1;durP2;ratioP2;P2;SDS_P1;SDS_P2;PMS_P1;PMS_P2;Temp;Humidity;BMP_temperature;BMP_pressure;BME280_temperature;BME280_humidity;BME280_pressure;Samples;Min_cycle;Max_cycle;Signal;HPM_P1;HPM_P2
2024/04/01 00:00:02;;;;;;;25.80;17.13;;;;;;;6.68;100.00;96432.03;6105074;19;20359;-72
2024/04/01 00:02:03;;;;;;;35.03;16.42;;;;;;;6.67;100.00;96444.22;6106103;19;20010;-71
2024/04/01 00:04:03;;;;;;;33.58;17.90;;;;;;;6.64;100.00;96444.25;6106937;19;20002;-71
2024/04/01 00:06:03;;;;;;;31.48;16.40;;;;;;;6.65;100.00;96443.06;6105756;19;20002;-71
2024/04/01 00:08:04;;;;;;;40.00;17.48;;;;;;;6.64;100.00;96442.28;6104547;19;20447;-71
2024/04/01 00:10:05;;;;;;;34.50;17.02;;;;;;;6.67;100.00;96444.22;6106662;19;20359;-71
2024/04/01 00:12:05;;;;;;;25.90;16.35;;;;;;;6.65;100.00;96441.09;6106728;19;20324;-71
2024/04/01 00:14:06;;;;;;;26.50;16.33;;;;;;;6.70;100.00;96461.84;6109084;19;20458;-71
2024/04/01 00:16:06;;;;;;;33.45;15.68;;;;;;;6.75;100.00;96450.44;6112687;19;20003;-71
2024/04/01 00:18:06;;;;;;;26.88;16.10;;;;;;;6.69;100.00;96452.03;6109760;19;20033;-71
2024/04/01 00:20:07;;;;;;;35.38;15.35;;;;;;;6.64;100.00;96457.97;6111515;19;20391;-72
2024/04/01 00:22:07;;;;;;;26.98;15.02;;;;;;;6.61;100.00;96451.31;6109449;19;20312;-71
2024/04/01 00:24:07;;;;;;;27.98;15.93;;;;;;;6.51;100.00;96435.66;6110569;19;20809;-71
2024/04/01 00:26:08;;;;;;;26.90;16.48;;;;;;;6.50;100.00;96444.31;6111230;19;20040;-71
2024/04/01 00:28:08;;;;;;;25.90;16.40;;;;;;;6.41;100.00;96444.75;6109123;19;20018;-71
2024/04/01 00:30:09;;;;;;;27.90;17.48;;;;;;;6.31;100.00;96437.34;6111691;19;20007;-71
2024/04/01 00:32:09;;;;;;;27.58;15.90;;;;;;;6.23;100.00;96439.34;6109301;19;20010;-71
2024/04/01 00:34:09;;;;;;;28.50;16.17;;;;;;;6.19;100.00;96428.34;6110839;19;20007;-71
2024/04/01 00:36:10;;;;;;;23.77;13.90;;;;;;;6.16;100.00;96431.91;6111641;19;20015;-71
2024/04/01 00:38:10;;;;;;;25.77;14.55;;;;;;;6.12;100.00;96422.91;6109840;19;20010;-71
2024/04/01 00:40:10;;;;;;;26.13;14.55;;;;;;;6.09;100.00;96423.69;6109579;19;20380;-71
2024/04/01 00:42:11;;;;;;;26.63;15.63;;;;;;;6.07;100.00;96428.03;6111614;19;20740;-71
2024/04/01 00:44:11;;;;;;;28.70;15.88;;;;;;;6.04;100.00;96421.38;6110453;19;19995;-71
2024/04/01 00:46:11;;;;;;;29.35;15.30;;;;;;;6.05;100.00;96413.91;6111445;19;20027;-71
2024/04/01 00:48:16;;;;;;;25.35;13.85;;;;;;;6.07;100.00;96420.56;6108673;19;20014;-71
2024/04/01 00:50:16;;;;;;;25.45;14.10;;;;;;;6.10;100.00;96408.00;6111590;19;19999;-71
2024/04/01 00:52:17;;;;;;;27.20;13.70;;;;;;;6.09;100.00;96404.47;6110572;19;20388;-71
2024/04/01 00:54:18;;;;;;;31.45;14.57;;;;;;;6.09;100.00;96401.72;6111620;19;20030;-71
2024/04/01 00:56:20;;;;;;;22.55;13.45;;;;;;;6.10;100.00;96391.53;6110663;19;20459;-71
2024/04/01 00:58:20;;;;;;;25.65;13.00;;;;;;;6.03;100.00;96367.63;6109373;19;20011;-71
2024/04/01 01:00:21;;;;;;;27.17;12.55;;;;;;;6.05;100.00;96373.53;6110164;19;20018;-71
2024/04/01 01:02:21;;;;;;;27.38;12.55;;;;;;;6.07;100.00;96375.88;6109417;19;20045;-71
2024/04/01 01:04:22;;;;;;;31.80;14.60;;;;;;;6.05;100.00;96356.28;6110227;19;20338;-71
2024/04/01 01:06:24;;;;;;;25.52;13.13;;;;;;;6.07;100.00;96354.69;6110562;19;20006;-71
2024/04/01 01:08:26;;;;;;;25.70;14.10;;;;;;;6.06;100.00;96358.63;6107840;19;20392;-71
2024/04/01 01:10:26;;;;;;;23.00;12.73;;;;;;;6.04;100.00;96341.75;6111136;19;20038;-71
2024/04/01 01:12:26;;;;;;;26.30;13.55;;;;;;;6.07;100.00;96351.94;6109631;19;20353;-71
2024/04/01 01:14:27;;;;;;;22.45;13.20;;;;;;;6.07;100.00;96360.16;6111486;19;20011;-71
2024/04/01 01:16:27;;;;;;;21.33;13.57;;;;;;;6.09;100.00;96355.06;6097939;19;20058;-70
2024/04/01 01:18:27;;;;;;;26.90;13.63;;;;;;;6.10;100.00;96358.56;6108954;19;20104;-70
2024/04/01 01:20:28;;;;;;;28.15;13.25;;;;;;;6.11;100.00;96371.13;6109619;19;20459;-71
2024/04/01 01:22:46;;;;;;;24.85;13.88;;;;;;;6.14;100.00;96370.34;6108952;19;20006;-71
2024/04/01 01:24:46;;;;;;;23.33;12.40;;;;;;;6.15;100.00;96369.94;6110107;19;20013;-71
2024/04/01 01:26:47;;;;;;;27.77;12.77;;;;;;;6.17;100.00;96362.06;6108666;19;20013;-71
2024/04/01 01:28:48;;;;;;;30.10;12.90;;;;;;;6.18;100.00;96365.59;6108160;19;20013;-71
2024/04/01 01:30:49;;;;;;;27.15;12.70;;;;;;;6.19;100.00;96359.69;6110543;19;20243;-71
2024/04/01 01:32:52;;;;;;;30.00;11.60;;;;;;;6.21;100.00;96353.84;6108530;19;20018;-71
2024/04/01 01:34:53;;;;;;;22.27;11.57;;;;;;;6.23;100.00;96359.69;6108268;19;20010;-71
2024/04/01 01:36:54;;;;;;;21.70;11.48;;;;;;;6.28;100.00;96367.50;6108586;19;20467;-71
2024/04/01 01:38:54;;;;;;;18.30;11.77;;;;;;;6.34;100.00;96351.38;6108920;19;20189;-71
2024/04/01 01:40:54;;;;;;;23.63;11.48;;;;;;;6.37;100.00;96358.81;6109103;19;20003;-71
2024/04/01 01:42:55;;;;;;;23.73;11.32;;;;;;;6.36;100.00;96351.75;6109870;19;20011;-71
2024/04/01 01:44:55;;;;;;;17.98;10.50;;;;;;;6.32;100.00;96353.75;6110471;19;20581;-71
2024/04/01 01:46:56;;;;;;;18.08;9.50;;;;;;;6.33;100.00;96355.31;6108391;19;20094;-71
2024/04/01 01:48:56;;;;;;;19.08;10.60;;;;;;;6.30;100.00;96345.94;6108734;19;20017;-71
2024/04/01 01:50:56;;;;;;;21.38;10.55;;;;;;;6.27;100.00;96354.97;6109931;19;20017;-71
2024/04/01 01:52:57;;;;;;;19.90;10.82;;;;;;;6.25;100.00;96351.06;6109792;19;20031;-71
2024/04/01 01:54:57;;;;;;;23.13;10.85;;;;;;;6.23;100.00;96350.69;6109593;19;20028;-71
2024/04/01 01:56:58;;;;;;;25.67;12.48;;;;;;;6.18;100.00;96341.66;6107891;19;20086;-71
2024/04/01 01:58:58;;;;;;;31.83;13.13;;;;;;;6.18;100.00;96351.88;6108937;19;20024;-71
2024/04/01 02:00:58;;;;;;;27.00;14.00;;;;;;;6.15;100.00;96345.22;6107796;19;20475;-71
2024/04/01 02:02:59;;;;;;;20.05;12.32;;;;;;;6.13;100.00;96341.31;6109761;19;20339;-71
2024/04/01 02:04:59;;;;;;;22.98;13.48;;;;;;;6.07;100.00;96329.97;6109942;19;20006;-71
2024/04/01 02:07:01;;;;;;;24.67;14.15;;;;;;;6.08;100.00;96328.78;6108774;19;20025;-71
2024/04/01 02:09:01;;;;;;;26.27;14.50;;;;;;;6.06;100.00;96331.16;6108096;19;20013;-71
2024/04/01 02:11:02;;;;;;;21.90;12.88;;;;;;;6.06;100.00;96327.63;6108904;19;20251;-71
2024/04/01 02:13:04;;;;;;;26.70;12.60;;;;;;;6.08;100.00;96323.28;6109320;19;20427;-71
2024/04/01 02:15:06;;;;;;;27.52;14.10;;;;;;;6.06;100.00;96317.44;6109273;19;20017;-71
2024/04/01 02:17:07;;;;;;;24.10;13.13;;;;;;;6.08;100.00;96319.78;6100978;19;20032;-71
2024/04/01 02:19:08;;;;;;;24.13;12.30;;;;;;;6.11;100.00;96316.22;6100082;19;20011;-71
2024/04/01 02:21:08;;;;;;;24.42;13.90;;;;;;;6.11;100.00;96307.97;6100552;19;20007;-71
2024/04/01 02:23:08;;;;;;;21.67;13.13;;;;;;;6.09;100.00;96307.59;6101476;19;20022;-71
2024/04/01 02:25:09;;;;;;;26.80;13.05;;;;;;;6.12;100.00;96302.09;6100125;19;20369;-71
2024/04/01 02:27:10;;;;;;;21.83;12.05;;;;;;;6.21;100.00;96298.91;6100070;19;20018;-71
2024/04/01 02:29:10;;;;;;;22.90;12.20;;;;;;;6.26;100.00;96300.44;6100174;19;20482;-71
2024/04/01 02:31:11;;;;;;;23.73;13.30;;;;;;;6.30;100.00;96279.25;6101597;19;20014;-71
2024/04/01 02:33:11;;;;;;;22.40;14.00;;;;;;;6.33;100.00;96270.97;6101477;19;20365;-71
2024/04/01 02:35:11;;;;;;;22.80;12.85;;;;;;;6.34;100.00;96278.03;6100947;19;20018;-71
2024/04/01 02:37:12;;;;;;;23.17;13.13;;;;;;;6.33;100.00;96279.19;6098599;19;20014;-71
2024/04/01 02:39:16;;;;;;;26.50;14.43;;;;;;;6.36;100.00;96281.13;6100195;19;20017;-71
2024/04/01 02:41:17;;;;;;;31.80;13.90;;;;;;;6.35;100.00;96276.06;6100924;19;20331;-71
2024/04/01 02:43:17;;;;;;;28.40;13.32;;;;;;;6.37;100.00;96274.47;6100799;19;20010;-71
2024/04/01 02:45:17;;;;;;;27.27;13.48;;;;;;;6.39;100.00;96263.88;6100561;19;20021;-71
2024/04/01 02:47:18;;;;;;;27.20;13.85;;;;;;;6.41;100.00;96260.72;6100851;19;20018;-71
2024/04/01 02:49:19;;;;;;;25.02;13.57;;;;;;;6.38;100.00;96254.06;6099399;19;20023;-71
2024/04/01 02:51:19;;;;;;;21.13;13.85;;;;;;;6.35;100.00;96254.06;6101064;19;20014;-71
2024/04/01 02:53:20;;;;;;;29.23;13.93;;;;;;;6.33;100.00;96245.47;6099870;19;20357;-71
2024/04/01 02:55:20;;;;;;;28.67;14.20;;;;;;;6.32;100.00;96252.16;6100998;19;20010;-71
2024/04/01 02:57:20;;;;;;;32.35;12.45;;;;;;;6.34;100.00;96238.78;6099282;19;20014;-71
2024/04/01 02:59:21;;;;;;;28.52;13.23;;;;;;;6.35;100.00;96237.59;6100401;19;20010;-71
2024/04/01 03:01:21;;;;;;;27.95;13.65;;;;;;;6.34;100.00;96225.84;6100595;19;20044;-71
2024/04/01 03:03:21;;;;;;;26.33;13.20;;;;;;;6.30;100.00;96216.09;6100793;19;20416;-71
2024/04/01 03:05:22;;;;;;;26.08;12.95;;;;;;;6.24;100.00;96223.97;6100252;19;20070;-71
2024/04/01 03:07:22;;;;;;;23.27;13.45;;;;;;;6.18;100.00;96229.09;6099339;19;20007;-71
2024/04/01 03:09:23;;;;;;;26.63;13.93;;;;;;;6.13;100.00;96223.28;6099905;19;20007;-71
2024/04/01 03:11:23;;;;;;;22.38;12.35;;;;;;;6.13;100.00;96212.28;6099803;19;20002;-71
2024/04/01 03:13:26;;;;;;;23.95;12.85;;;;;;;6.15;100.00;96207.94;6099788;19;20459;-71
2024/04/01 03:15:26;;;;;;;28.08;13.68;;;;;;;6.14;100.00;96220.13;6098223;19;20084;-71
2024/04/01 03:17:31;;;;;;;22.58;12.52;;;;;;;6.16;100.00;96223.22;6106136;19;20010;-71
2024/04/01 03:19:31;;;;;;;27.20;13.20;;;;;;;6.19;100.00;96230.66;6107741;19;20021;-71
2024/04/01 03:21:32;;;;;;;34.10;13.52;;;;;;;6.19;100.00;96236.13;6107522;19;20011;-71
2024/04/01 03:23:32;;;;;;;26.75;12.55;;;;;;;6.23;100.00;96221.63;6106905;19;20463;-71
2024/04/01 03:25:32;;;;;;;24.67;10.93;;;;;;;6.28;100.00;96221.94;6107590;19;23252;-71
2024/04/01 03:27:33;;;;;;;18.80;11.27;;;;;;;6.31;100.00;96209.41;6106509;19;20583;-71
2024/04/01 03:29:33;;;;;;;26.35;12.50;;;;;;;6.34;100.00;96209.34;6108200;19;20019;-71
2024/04/01 03:31:33;;;;;;;19.98;11.85;;;;;;;6.36;100.00;96209.72;6105792;19;20003;-71
2024/04/01 03:33:34;;;;;;;29.80;12.95;;;;;;;6.35;100.00;96210.91;6107763;19;20002;-71
2024/04/01 03:35:34;;;;;;;28.35;12.82;;;;;;;6.34;100.00;96201.13;6106249;19;20474;-71
2024/04/01 03:37:34;;;;;;;20.88;11.15;;;;;;;6.34;100.00;96201.13;6105200;19;20014;-71
2024/04/01 03:39:35;;;;;;;25.58;13.80;;;;;;;6.33;100.00;96213.28;6106403;19;20007;-71
2024/04/01 03:41:35;;;;;;;21.35;11.38;;;;;;;6.31;100.00;96215.66;6107299;19;20050;-71
2024/04/01 03:43:35;;;;;;;23.67;12.77;;;;;;;6.37;100.00;96226.97;6107535;19;20010;-71
2024/04/01 03:45:36;;;;;;;21.92;11.57;;;;;;;6.43;100.00;96228.91;6106866;19;20015;-71
2024/04/01 03:47:37;;;;;;;34.80;12.43;;;;;;;6.48;100.00;96222.97;6104869;19;20003;-70
2024/04/01 03:49:38;;;;;;;22.42;12.85;;;;;;;6.51;100.00;96217.84;6112814;19;20023;-71
2024/04/01 03:51:39;;;;;;;30.45;12.13;;;;;;;6.50;100.00;96211.56;6112083;19;20350;-71
2024/04/01 03:53:39;;;;;;;17.13;10.43;;;;;;;6.50;100.00;96213.53;6113017;19;20008;-71
2024/04/01 03:55:39;;;;;;;23.58;11.07;;;;;;;6.50;100.00;96228.06;6112116;19;20003;-71
2024/04/01 03:57:40;;;;;;;19.30;10.90;;;;;;;6.49;100.00;96223.75;6111346;19;20007;-71
2024/04/01 03:59:40;;;;;;;21.52;11.13;;;;;;;6.52;100.00;96214.69;6112349;19;20006;-71
2024/04/01 04:01:44;;;;;;;26.67;11.60;;;;;;;6.51;100.00;96207.63;6112507;19;20070;-71
2024/04/01 04:03:44;;;;;;;24.60;11.52;;;;;;;6.52;100.00;96211.94;6111619;19;20010;-71
2024/04/01 04:05:45;;;;;;;28.75;14.07;;;;;;;6.52;100.00;96205.69;6112001;19;20014;-71
2024/04/01 04:07:45;;;;;;;17.73;12.80;;;;;;;6.52;100.00;96205.69;6110619;19;20408;-71
2024/04/01 04:09:46;;;;;;;23.25;13.68;;;;;;;6.51;100.00;96217.84;6112637;19;20035;-71
2024/04/01 04:11:49;;;;;;;21.75;13.02;;;;;;;6.51;100.00;96217.84;6113108;19;20006;-71
2024/04/01 04:13:49;;;;;;;27.83;13.30;;;;;;;6.54;100.00;96217.03;6110962;19;20467;-71
2024/04/01 04:15:49;;;;;;;22.35;11.75;;;;;;;6.56;100.00;96209.97;6111108;19;20007;-71
2024/04/01 04:17:50;;;;;;;22.38;11.70;;;;;;;6.56;100.00;96200.94;6110536;19;20099;-71
2024/04/01 04:19:50;;;;;;;25.77;12.15;;;;;;;6.57;100.00;96186.78;6110933;19;20538;-71
2024/04/01 04:21:50;;;;;;;18.75;10.63;;;;;;;6.58;100.00;96163.63;6110863;19;20392;-71
2024/04/01 04:23:51;;;;;;;24.20;11.88;;;;;;;6.61;100.00;96151.03;6110563;19;20094;-71
2024/04/01 04:25:51;;;;;;;28.17;12.70;;;;;;;6.68;100.00;96121.50;6111910;19;20351;-71
2024/04/01 04:27:52;;;;;;;22.35;12.43;;;;;;;6.61;100.00;96110.59;6109778;19;20002;-71
2024/04/01 04:29:52;;;;;;;23.40;12.00;;;;;;;6.56;100.00;96100.06;6111046;19;20003;-71
2024/04/01 04:31:54;;;;;;;28.35;11.70;;;;;;;6.62;100.00;96100.38;6111242;19;19998;-71
2024/04/01 04:33:56;;;;;;;30.83;12.15;;;;;;;6.64;100.00;96096.06;6110236;19;20006;-71
2024/04/01 04:35:56;;;;;;;27.88;11.68;;;;;;;6.66;100.00;96081.91;6110066;19;20007;-71
2024/04/01 04:37:56;;;;;;;33.47;11.52;;;;;;;6.68;100.00;96094.03;6109618;19;20026;-71
2024/04/01 04:39:57;;;;;;;20.20;10.98;;;;;;;6.79;100.00;96124.16;6111513;19;20015;-71
2024/04/01 04:41:57;;;;;;;21.58;11.13;;;;;;;6.81;100.00;96112.75;6111786;19;20455;-71
2024/04/01 04:44:00;;;;;;;24.38;11.48;;;;;;;6.84;100.00;96109.16;6110537;19;20021;-71
2024/04/01 04:46:01;;;;;;;24.58;12.50;;;;;;;6.84;100.00;96134.69;6110026;19;20363;-71
2024/04/01 04:48:01;;;;;;;19.02;9.75;;;;;;;6.96;100.00;96164.41;6109109;19;20014;-71
2024/04/01 04:50:01;;;;;;;21.77;10.65;;;;;;;7.11;100.00;96183.47;6110989;19;20040;-71
2024/04/01 04:52:03;;;;;;;24.48;11.18;;;;;;;7.16;100.00;96178.31;6111061;19;20040;-71
2024/04/01 04:54:04;;;;;;;22.58;10.38;;;;;;;7.20;100.00;96162.56;6110862;19;20030;-71
2024/04/01 04:56:05;;;;;;;23.08;10.63;;;;;;;7.13;100.00;96168.13;6110443;19;20003;-71
2024/04/01 04:58:05;;;;;;;22.65;10.40;;;;;;;7.13;100.00;96190.13;6109076;19;20432;-71
2024/04/01 05:00:22;;;;;;;22.30;10.30;;;;;;;7.14;100.00;96190.91;6109648;19;20003;-71
2024/04/01 05:02:22;;;;;;;26.15;12.38;;;;;;;7.08;100.00;96140.31;6110953;19;20107;-71
2024/04/01 05:04:22;;;;;;;29.42;12.05;;;;;;;7.05;100.00;96125.41;6110095;19;20003;-71
2024/04/01 05:06:23;;;;;;;23.92;10.55;;;;;;;7.00;100.00;96137.63;6111767;19;20491;-71
2024/04/01 05:08:23;;;;;;;19.13;11.88;;;;;;;7.03;100.00;96142.31;6108355;19;20010;-71
2024/04/01 05:10:23;;;;;;;33.67;12.55;;;;;;;7.04;100.00;96143.09;6110777;19;20024;-71
2024/04/01 05:12:25;;;;;;;27.50;12.80;;;;;;;6.98;100.00;96142.78;6110534;19;20457;-71
2024/04/01 05:14:25;;;;;;;29.05;12.55;;;;;;;6.96;100.00;96134.16;6111884;19;20025;-71
2024/04/01 05:16:26;;;;;;;33.75;14.13;;;;;;;6.94;100.00;96127.50;6111306;19;20015;-71
2024/04/01 05:18:26;;;;;;;28.25;11.93;;;;;;;6.96;100.00;96136.91;6109242;19;20621;-71
2024/04/01 05:20:26;;;;;;;24.95;11.32;;;;;;;6.97;100.00;96140.44;6111190;19;20058;-71
2024/04/01 05:22:27;;;;;;;22.80;11.32;;;;;;;6.98;100.00;96145.53;6110497;19;20010;-71
2024/04/01 05:24:27;;;;;;;30.48;11.25;;;;;;;7.09;100.00;96150.88;6110500;19;20010;-70
2024/04/01 05:26:28;;;;;;;26.27;11.52;;;;;;;7.07;100.00;96147.78;6109723;19;20011;-70
2024/04/01 05:28:28;;;;;;;25.27;13.18;;;;;;;7.01;100.00;96143.91;6109551;19;20402;-70
2024/04/01 05:30:29;;;;;;;26.50;12.07;;;;;;;7.00;100.00;96132.13;6111228;19;20014;-71
2024/04/01 05:32:33;;;;;;;27.20;13.00;;;;;;;7.01;100.00;96116.41;6110576;19;20002;-71
2024/04/01 05:34:37;;;;;;;21.33;11.68;;;;;;;7.07;100.00;96114.00;6109708;19;20405;-71
2024/04/01 05:36:37;;;;;;;29.13;12.25;;;;;;;7.12;100.00;96117.09;6109595;19;20045;-71
2024/04/01 05:38:39;;;;;;;31.08;13.48;;;;;;;7.07;100.00;96112.03;6108800;19;20113;-71
2024/04/01 05:40:40;;;;;;;24.63;12.65;;;;;;;7.12;100.00;96121.81;6109704;19;20604;-71
2024/04/01 05:42:40;;;;;;;21.98;12.80;;;;;;;7.11;100.00;96134.75;6110354;19;20006;-71
2024/04/01 05:44:41;;;;;;;28.10;13.07;;;;;;;7.10;100.00;96146.94;6110466;19;20006;-71
2024/04/01 05:46:41;;;;;;;28.33;13.77;;;;;;;7.10;100.00;96157.94;6110177;19;20030;-71
2024/04/01 05:48:42;;;;;;;25.30;12.25;;;;;;;7.10;100.00;96168.16;6108918;19;20024;-71
2024/04/01 05:50:49;;;;;;;27.50;12.80;;;;;;;7.09;100.00;96156.38;6110463;19;20012;-71
2024/04/01 05:52:50;;;;;;;22.42;11.85;;;;;;;7.13;100.00;96176.38;6109784;19;20026;-71
2024/04/01 05:54:50;;;;;;;22.38;11.75;;;;;;;7.15;100.00;96185.00;6108479;19;20052;-71
2024/04/01 05:56:50;;;;;;;23.63;12.07;;;;;;;7.20;100.00;96173.56;6108120;19;20013;-71
2024/04/01 05:58:51;;;;;;;29.42;12.73;;;;;;;7.25;100.00;96175.06;6109681;19;20002;-71
2024/04/01 06:00:51;;;;;;;29.10;12.30;;;;;;;7.29;100.00;96184.84;6109349;19;20003;-71
2024/04/01 06:02:53;;;;;;;21.67;11.73;;;;;;;7.30;100.00;96172.63;6108829;19;20007;-71
2024/04/01 06:04:53;;;;;;;26.33;12.70;;;;;;;7.31;100.00;96168.69;6110301;19;20036;-71
2024/04/01 06:06:53;;;;;;;20.67;12.40;;;;;;;7.35;100.00;96176.88;6108601;19;20451;-71
2024/04/01 06:08:54;;;;;;;20.45;12.35;;;;;;;7.36;100.00;96180.41;6108714;19;20338;-71
2024/04/01 06:10:54;;;;;;;29.27;12.52;;;;;;;7.41;100.00;96182.72;6106743;19;20002;-71
2024/04/01 06:12:54;;;;;;;25.33;12.77;;;;;;;7.44;100.00;96190.13;6108973;19;20236;-71
2024/04/01 06:14:55;;;;;;;29.77;14.18;;;;;;;7.49;100.00;96189.69;6110133;19;20574;-71
2024/04/01 06:16:55;;;;;;;25.02;13.15;;;;;;;7.51;100.00;96192.78;6097158;19;20013;-71
2024/04/01 06:18:56;;;;;;;24.35;14.38;;;;;;;7.52;100.00;96184.13;6109065;19;20022;-71
2024/04/01 06:20:56;;;;;;;22.75;13.43;;;;;;;7.56;100.00;96175.84;6107993;19;19999;-71
2024/04/01 06:22:56;;;;;;;32.70;15.20;;;;;;;7.56;100.00;96167.59;6109118;19;20026;-71
2024/04/01 06:24:57;;;;;;;28.17;13.63;;;;;;;7.62;100.00;96143.91;6108682;19;20011;-71
2024/04/01 06:26:57;;;;;;;29.67;15.23;;;;;;;7.66;100.00;96143.84;6108783;19;20006;-71
2024/04/01 06:28:57;;;;;;;25.17;13.15;;;;;;;7.72;100.00;96142.19;6108131;19;19999;-71
2024/04/01 06:30:58;;;;;;;43.45;18.58;;;;;;;7.71;100.00;96141.41;6108724;19;20036;-71
2024/04/01 06:32:58;;;;;;;29.70;15.25;;;;;;;7.74;100.00;96146.09;6107295;19;20011;-71
2024/04/01 06:34:59;;;;;;;39.50;19.80;;;;;;;7.77;100.00;96134.22;6106352;19;20002;-71
2024/04/01 06:36:59;;;;;;;29.63;15.60;;;;;;;7.78;100.00;96135.03;6108635;19;20010;-71
2024/04/01 06:38:59;;;;;;;21.95;14.82;;;;;;;7.81;100.00;96114.94;6108535;19;20017;-71
2024/04/01 06:41:00;;;;;;;33.47;15.57;;;;;;;7.80;100.00;96100.38;6105978;19;20015;-71
2024/04/01 06:43:00;;;;;;;32.17;21.02;;;;;;;7.82;100.00;96077.94;6106088;19;20491;-71
2024/04/01 06:45:00;;;;;;;37.28;18.50;;;;;;;7.88;100.00;96081.78;6107765;19;20542;-71
2024/04/01 06:47:01;;;;;;;33.08;19.42;;;;;;;7.91;100.00;96080.94;6106522;19;20034;-71
2024/04/01 06:49:01;;;;;;;39.35;19.80;;;;;;;7.98;100.00;96094.59;6107486;19;20019;-71
2024/04/01 06:51:01;;;;;;;34.38;20.48;;;;;;;8.02;100.00;96091.75;6108666;19;20014;-71
2024/04/01 06:53:02;;;;;;;35.70;19.80;;;;;;;8.06;100.00;96078.72;6107564;19;20022;-71
2024/04/01 06:55:02;;;;;;;37.20;19.15;;;;;;;8.13;100.00;96075.84;6107332;19;20348;-71
2024/04/01 06:57:03;;;;;;;37.65;20.90;;;;;;;8.13;100.00;96067.59;6105936;19;20677;-71
2024/04/01 06:59:03;;;;;;;39.25;19.92;;;;;;;8.17;100.00;96071.81;6107801;19;20015;-71
2024/04/01 07:01:03;;;;;;;45.92;20.63;;;;;;;8.16;100.00;96070.28;6106297;19;20011;-71
2024/04/01 07:03:05;;;;;;;39.03;20.48;;;;;;;8.21;100.00;96082.78;6107163;19;20346;-72
2024/04/01 07:05:05;;;;;;;34.20;18.88;;;;;;;8.25;100.00;96080.75;6108692;19;20014;-71
2024/04/01 07:07:06;;;;;;;27.60;17.92;;;;;;;8.28;100.00;96077.16;6106307;19;20006;-71
2024/04/01 07:09:07;;;;;;;39.90;19.40;;;;;;;8.35;100.00;96066.03;6106958;19;20006;-71
2024/04/01 07:11:07;;;;;;;30.52;18.15;;;;;;;8.37;100.00;96066.41;6107888;19;20002;-71
2024/04/01 07:13:07;;;;;;;30.85;16.98;;;;;;;8.43;100.00;96080.44;6108793;19;20039;-71
2024/04/01 07:15:11;;;;;;;27.90;16.08;;;;;;;8.47;100.00;96072.91;6106594;19;20007;-71
2024/04/01 07:17:11;;;;;;;29.80;17.27;;;;;;;8.53;100.00;96078.72;6099460;19;20506;-71
2024/04/01 07:19:11;;;;;;;25.38;16.90;;;;;;;8.61;100.00;96088.41;6098062;19;20078;-71
2024/04/01 07:21:12;;;;;;;29.75;16.20;;;;;;;8.68;100.00;96085.47;6099079;19;20089;-71
2024/04/01 07:23:12;;;;;;;37.53;16.30;;;;;;;8.72;100.00;96084.22;6098474;19;20066;-71
2024/04/01 07:25:13;;;;;;;24.95;14.93;;;;;;;8.79;100.00;96077.03;6099951;19;20336;-71
2024/04/01 07:27:13;;;;;;;28.70;14.80;;;;;;;8.79;100.00;96077.81;6099041;19;20488;-71
2024/04/01 07:29:13;;;;;;;23.73;13.45;;;;;;;8.82;100.00;96076.94;6098195;19;20350;-71
2024/04/01 07:31:14;;;;;;;26.55;12.88;;;;;;;8.81;100.00;96061.59;6098695;19;20014;-71
2024/04/01 07:33:14;;;;;;;24.88;13.13;;;;;;;8.83;100.00;96061.94;6098738;19;20037;-71
2024/04/01 07:35:14;;;;;;;19.02;12.57;;;;;;;8.87;100.00;96068.19;6098197;19;20496;-71
2024/04/01 07:37:14;;;;;;;18.63;13.07;;;;;;;8.96;100.00;96062.09;6099064;19;20014;-71
2024/04/01 07:39:16;;;;;;;23.77;13.38;;;;;;;9.04;100.00;96068.25;6097366;19;20007;-71
2024/04/01 07:41:16;;;;;;;20.57;14.10;;;;;;;9.09;100.00;96068.50;6099273;19;20010;-71
2024/04/01 07:43:17;;;;;;;20.88;12.45;;;;;;;9.16;100.00;96079.38;6097367;19;20002;-71
2024/04/01 07:45:17;;;;;;;25.35;12.80;;;;;;;9.27;100.00;96092.97;6098829;19;20031;-71
2024/04/01 07:47:19;;;;;;;19.92;11.85;;;;;;;9.34;100.00;96087.28;6098383;19;20019;-71
2024/04/01 07:49:19;;;;;;;22.75;12.52;;;;;;;9.39;100.00;96092.31;6097633;19;20003;-71
2024/04/01 07:51:20;;;;;;;21.15;10.98;;;;;;;9.44;100.00;96094.56;6098326;19;20409;-71
2024/04/01 07:53:20;;;;;;;45.70;20.30;;;;;;;9.54;100.00;96117.63;6099103;19;20066;-71
2024/04/01 07:55:20;;;;;;;39.85;19.92;;;;;;;9.55;100.00;96130.97;6098589;19;20070;-71
2024/04/01 07:57:21;;;;;;;40.15;20.25;;;;;;;9.62;100.00;96110.72;6097867;19;20003;-71
2024/04/01 07:59:21;;;;;;;32.78;16.35;;;;;;;9.65;100.00;96106.31;6097598;19;20066;-71
2024/04/01 08:01:22;;;;;;;31.13;13.80;;;;;;;9.70;100.00;96109.38;6098323;19;20003;-71
2024/04/01 08:03:22;;;;;;;29.98;13.27;;;;;;;9.76;100.00;96098.56;6098149;19;20455;-71
2024/04/01 08:05:23;;;;;;;44.22;16.73;;;;;;;9.78;100.00;96104.44;6098598;19;20023;-71
2024/04/01 08:07:23;;;;;;;38.90;16.52;;;;;;;9.83;100.00;96090.88;6096982;19;20009;-71
2024/04/01 08:09:23;;;;;;;36.90;16.58;;;;;;;9.91;100.00;96116.34;6098107;19;20090;-71
2024/04/01 08:11:24;;;;;;;29.70;16.10;;;;;;;9.96;100.00;96124.13;6097709;19;20335;-71
2024/04/01 08:13:24;;;;;;;29.48;15.95;;;;;;;10.01;100.00;96107.06;6097379;19;20347;-71
2024/04/01 08:15:24;;;;;;;32.85;19.52;;;;;;;10.08;100.00;96095.03;6095819;19;20006;-71
2024/04/01 08:17:25;;;;;;;37.92;20.48;;;;;;;10.09;100.00;96072.53;6104228;19;20018;-71
2024/04/01 08:19:26;;;;;;;74.95;40.05;;;;;;;10.11;100.00;96075.63;6106626;19;20006;-71
2024/04/01 08:21:26;;;;;;;37.92;19.63;;;;;;;10.13;100.00;96073.19;6105335;19;20436;-71
2024/04/01 08:23:28;;;;;;;38.03;19.52;;;;;;;10.09;100.00;96075.28;6105263;19;20007;-71
2024/04/01 08:25:29;;;;;;;39.13;22.45;;;;;;;10.10;100.00;96068.56;6106004;19;20017;-71
2024/04/01 08:27:29;;;;;;;46.03;21.70;;;;;;;10.09;100.00;96060.66;6104760;19;20490;-71
2024/04/01 08:29:29;;;;;;;41.28;20.48;;;;;;;10.08;100.00;96054.38;6105886;19;20006;-71
2024/04/01 08:31:30;;;;;;;37.45;19.15;;;;;;;10.08;100.00;96062.66;6105469;19;20036;-71
2024/04/01 08:33:30;;;;;;;44.85;20.02;;;;;;;10.07;100.00;96090.72;6105963;19;20024;-71
2024/04/01 08:35:31;;;;;;;31.23;18.85;;;;;;;10.01;100.00;96104.28;6110528;19;20010;-71
2024/04/01 08:37:32;;;;;;;33.00;20.10;;;;;;;9.98;100.00;96112.66;6107896;19;20006;-71
2024/04/01 08:39:32;;;;;;;30.70;17.85;;;;;;;9.92;100.00;96109.63;6112593;19;20078;-71
2024/04/01 08:41:39;;;;;;;27.73;17.70;;;;;;;9.93;100.00;96110.41;6110822;19;20007;-71
2024/04/01 08:43:41;;;;;;;38.72;21.52;;;;;;;9.97;100.00;96089.78;6110827;19;20034;-71
2024/04/01 08:45:44;;;;;;;33.95;20.05;;;;;;;10.06;100.00;96081.66;6110743;19;20037;-71
2024/04/01 08:47:47;;;;;;;50.00;28.73;;;;;;;10.25;100.00;96062.66;6109419;19;20002;-71
2024/04/01 08:50:08;;;;;;;40.25;21.73;;;;;;;10.37;100.00;96070.25;6111129;19;20011;-71
2024/04/01 08:52:13;;;;;;;39.00;19.90;;;;;;;10.44;100.00;96063.78;6109576;19;20082;-71
2024/04/01 08:54:14;;;;;;;42.63;21.10;;;;;;;10.48;100.00;96065.22;6108569;19;20019;-71
2024/04/01 08:56:15;;;;;;;41.35;21.02;;;;;;;10.55;100.00;96042.91;6110976;19;20029;-71
2024/04/01 08:58:16;;;;;;;32.13;19.70;;;;;;;10.61;100.00;96038.41;6108398;19;20017;-71
2024/04/01 09:00:18;;;;;;;32.38;19.98;;;;;;;10.77;100.00;96028.50;6110575;19;20246;-71
2024/04/01 09:02:19;;;;;;;39.35;20.00;;;;;;;10.83;100.00;96015.66;6110193;19;20011;-71
2024/04/01 09:04:19;;;;;;;37.17;20.88;;;;;;;10.91;100.00;96005.94;6110529;19;20029;-71
2024/04/01 09:06:20;;;;;;;41.38;21.20;;;;;;;10.98;100.00;95989.13;6107516;19;20009;-71
2024/04/01 09:08:20;;;;;;;47.05;20.05;;;;;;;10.95;100.00;95993.56;6108894;19;20006;-71
2024/04/01 09:10:21;;;;;;;44.70;22.20;;;;;;;10.94;100.00;95996.78;6109893;19;20487;-71
2024/04/01 09:12:22;;;;;;;33.20;21.30;;;;;;;10.82;100.00;96001.06;6109425;19;20983;-71
2024/04/01 09:14:22;;;;;;;44.83;21.17;;;;;;;10.81;100.00;96009.81;6110790;19;20036;-71